Time;durP1;ratioP1;P1;durP2;ratioP2;P2;SDS_P1;SDS_P2;PMS_P1;PMS_P2;Temp;Humidity;BMP_temperature;BMP_pressure;BME280_temperature;BME280_humidity;BME280_pressure;Samples;Min_cycle;Max_cycle;Signal;HPM_P1;HPM_P2
2021/07/14 00:00:52;;;;;;;25.85;23.75;;;;;;;;;;3600199;39;20226;-85
2021/07/14 00:03:19;;;;;;;23.42;21.40;;;;;;;;;;3602738;39;20264;-83
2021/07/14 00:05:47;;;;;;;25.77;23.58;;;;;;;;;;3602662;39;20280;-83
2021/07/14 00:08:14;;;;;;;23.98;21.98;;;;;;;;;;3602353;39;20277;-83
2021/07/14 00:10:43;;;;;;;24.70;22.58;;;;;;;;;;3602652;39;20219;-83
2021/07/14 00:13:23;;;;;;;26.13;23.70;;;;;;;;;;3600079;39;20242;-87
2021/07/14 00:24:08;;;;;;;31.95;29.23;;;;;;;;;;3612169;39;20752;-83
2021/07/14 00:26:36;;;;;;;30.65;27.65;;;;;;;;;;3603644;39;20217;-84
2021/07/14 00:29:05;;;;;;;30.40;27.75;;;;;;;;;;3612660;39;20217;-83
2021/07/14 00:31:32;;;;;;;31.10;28.40;;;;;;;;;;3603076;39;20202;-84
2021/07/14 00:34:07;;;;;;;29.42;26.80;;;;;;;;;;3603934;39;20261;-94
2021/07/14 00:44:35;;;;;;;27.98;25.50;;;;;;;;;;3613274;39;20213;-84
2021/07/14 00:47:03;;;;;;;28.52;25.92;;;;;;;;;;3596833;39;20224;-87
2021/07/14 00:49:31;;;;;;;25.77;23.65;;;;;;;;;;3582905;40;20259;-87
2021/07/14 00:54:35;;;;;;;27.08;24.88;;;;;;;;;;3611207;39;20214;-82
2021/07/14 00:59:40;;;;;;;26.95;24.38;;;;;;;;;;3613201;39;20236;-92
2021/07/14 01:05:06;;;;;;;27.73;25.23;;;;;;;;;;3604443;39;20233;-85
2021/07/14 01:07:38;;;;;;;28.58;26.08;;;;;;;;;;3613793;39;21150;-83
2021/07/14 01:10:07;;;;;;;28.67;26.25;;;;;;;;;;3604942;39;20246;-82
2021/07/14 01:12:39;;;;;;;28.50;25.88;;;;;;;;;;3596565;39;20292;-83
2021/07/14 01:17:38;;;;;;;29.98;27.42;;;;;;;;;;3591361;39;20235;-86
2021/07/14 01:20:21;;;;;;;26.48;24.20;;;;;;;;;;3603311;39;20314;-86
2021/07/14 01:22:51;;;;;;;28.65;26.13;;;;;;;;;;3590038;39;20230;-83
2021/07/14 01:25:23;;;;;;;27.73;25.13;;;;;;;;;;3602463;39;20226;-86
2021/07/14 01:27:53;;;;;;;32.22;29.33;;;;;;;;;;3603649;39;20288;-84
2021/07/14 01:30:20;;;;;;;26.70;24.50;;;;;;;;;;3603484;39;20276;-82
2021/07/14 01:32:48;;;;;;;28.17;25.38;;;;;;;;;;3603277;39;20234;-84
2021/07/14 01:35:17;;;;;;;31.42;28.45;;;;;;;;;;3603479;39;20305;-85
2021/07/14 01:37:46;;;;;;;30.70;27.95;;;;;;;;;;3603356;39;20242;-87
2021/07/14 01:40:14;;;;;;;28.98;26.10;;;;;;;;;;3603135;39;20230;-84
2021/07/14 01:42:44;;;;;;;28.98;26.58;;;;;;;;;;3602762;39;20234;-84
2021/07/14 01:45:14;;;;;;;27.88;25.38;;;;;;;;;;3603465;39;20291;-86
2021/07/14 01:47:42;;;;;;;27.90;25.40;;;;;;;;;;3603557;39;20218;-85
2021/07/14 01:50:10;;;;;;;27.35;24.95;;;;;;;;;;3602960;39;20230;-88
2021/07/14 01:55:14;;;;;;;29.92;27.23;;;;;;;;;;3594726;40;20273;-86
2021/07/14 01:57:42;;;;;;;28.80;26.13;;;;;;;;;;3587179;40;20238;-84
2021/07/14 02:00:10;;;;;;;31.60;28.70;;;;;;;;;;3593724;40;20273;-83
2021/07/14 02:02:50;;;;;;;32.22;29.10;;;;;;;;;;3593887;40;20220;-85
2021/07/14 02:05:17;;;;;;;31.55;28.45;;;;;;;;;;3593702;40;20243;-86
2021/07/14 02:07:45;;;;;;;31.38;28.23;;;;;;;;;;3585458;40;20228;-84
2021/07/14 02:10:12;;;;;;;29.90;27.08;;;;;;;;;;3593969;40;20246;-84
2021/07/14 02:12:41;;;;;;;33.83;30.63;;;;;;;;;;3593977;40;20211;-87
2021/07/14 02:15:09;;;;;;;35.60;32.15;;;;;;;;;;3592748;40;20216;-83
2021/07/14 02:17:38;;;;;;;34.20;30.92;;;;;;;;;;3593817;40;20211;-84
2021/07/14 02:20:09;;;;;;;33.45;30.25;;;;;;;;;;3593772;40;20232;-84
2021/07/14 02:22:37;;;;;;;34.28;30.83;;;;;;;;;;3592149;40;20222;-84
2021/07/14 02:25:05;;;;;;;34.78;31.40;;;;;;;;;;3599648;40;20210;-84
2021/07/14 02:27:32;;;;;;;32.88;29.60;;;;;;;;;;3603988;40;20217;-85
2021/07/14 02:30:00;;;;;;;33.70;30.65;;;;;;;;;;3595305;40;20230;-84
2021/07/14 02:32:52;;;;;;;31.10;28.10;;;;;;;;;;3666185;22;21226;-85
2021/07/14 02:38:02;;;;;;;34.80;31.30;;;;;;;;;;3602092;39;20716;-84
2021/07/14 02:40:31;;;;;;;31.27;28.27;;;;;;;;;;3602660;39;20233;-88
2021/07/14 02:43:01;;;;;;;32.40;29.27;;;;;;;;;;3602671;39;20242;-84
2021/07/14 02:45:29;;;;;;;35.35;32.05;;;;;;;;;;3634086;22;20243;-86
2021/07/14 02:50:38;;;;;;;31.90;29.13;;;;;;;;;;3611569;39;20226;-83
2021/07/14 02:55:46;;;;;;;30.13;27.02;;;;;;;;;;3602207;39;20209;-86
2021/07/14 02:58:14;;;;;;;32.28;29.20;;;;;;;;;;3641283;22;22615;-83
2021/07/14 03:00:42;;;;;;;31.92;28.88;;;;;;;;;;3612683;39;20710;-84
2021/07/14 03:03:11;;;;;;;31.60;28.48;;;;;;;;;;3612799;39;20217;-83
2021/07/14 03:05:38;;;;;;;32.75;29.38;;;;;;;;;;3612192;39;20242;-85
2021/07/14 03:08:12;;;;;;;33.58;30.35;;;;;;;;;;3603526;39;20218;-85
2021/07/14 03:10:40;;;;;;;32.05;28.67;;;;;;;;;;3613067;39;20238;-82
2021/07/14 03:13:09;;;;;;;32.55;29.35;;;;;;;;;;3604133;39;20225;-85
2021/07/14 03:15:38;;;;;;;32.70;29.33;;;;;;;;;;3612838;39;20756;-83
2021/07/14 03:18:07;;;;;;;30.48;27.48;;;;;;;;;;3603787;39;20233;-83
2021/07/14 03:20:34;;;;;;;34.95;31.45;;;;;;;;;;3603855;39;20394;-83
2021/07/14 03:23:02;;;;;;;33.50;29.98;;;;;;;;;;3612426;39;20229;-84
2021/07/14 03:25:30;;;;;;;32.25;28.85;;;;;;;;;;3603792;39;20246;-84
2021/07/14 03:30:41;;;;;;;39.42;35.65;;;;;;;;;;3638460;22;20226;-83
2021/07/14 03:33:08;;;;;;;42.00;37.55;;;;;;;;;;3601779;39;20768;-84
2021/07/14 03:38:19;;;;;;;43.72;38.97;;;;;;;;;;3611335;39;20213;-84
2021/07/14 03:43:28;;;;;;;45.05;40.38;;;;;;;;;;3621757;39;20213;-83
2021/07/14 03:45:55;;;;;;;47.53;39.78;;;;;;;;;;3622376;22;20301;-87
2021/07/14 03:51:05;;;;;;;47.75;42.85;;;;;;;;;;3664297;22;20372;31
2021/07/14 03:53:36;;;;;;;47.15;40.70;;;;;;;;;;3704230;22;21293;31
2021/07/14 03:56:04;;;;;;;45.88;41.10;;;;;;;;;;3642299;22;20230;-82
2021/07/14 03:58:32;;;;;;;47.35;42.03;;;;;;;;;;3612299;39;20238;-82
2021/07/14 04:00:59;;;;;;;48.42;41.80;;;;;;;;;;3612398;39;20249;-80
2021/07/14 04:03:29;;;;;;;45.45;40.35;;;;;;;;;;3603840;39;20240;-82
2021/07/14 04:05:58;;;;;;;47.10;41.33;;;;;;;;;;3612580;39;20236;-85
2021/07/14 04:08:29;;;;;;;53.15;43.38;;;;;;;;;;3613333;39;20233;-82
2021/07/14 04:10:58;;;;;;;52.80;44.80;;;;;;;;;;3612011;39;20812;-83
2021/07/14 04:13:25;;;;;;;57.72;47.13;;;;;;;;;;3611778;39;20241;-84
2021/07/14 04:15:53;;;;;;;55.80;47.45;;;;;;;;;;3613050;39;20218;-83
2021/07/14 04:18:20;;;;;;;53.55;44.55;;;;;;;;;;3613389;39;20244;-83
2021/07/14 04:20:48;;;;;;;54.22;48.47;;;;;;;;;;3613676;39;20237;-83
2021/07/14 04:23:15;;;;;;;51.22;45.75;;;;;;;;;;3613803;39;20299;-81
2021/07/14 04:25:42;;;;;;;51.90;46.28;;;;;;;;;;3613884;39;20294;-82
2021/07/14 04:28:11;;;;;;;50.90;45.40;;;;;;;;;;3613632;39;20252;-80
2021/07/14 04:30:39;;;;;;;51.05;45.63;;;;;;;;;;3613462;39;20234;-82
2021/07/14 04:33:06;;;;;;;54.65;46.47;;;;;;;;;;3613619;39;20817;-83
2021/07/14 04:35:36;;;;;;;48.83;43.60;;;;;;;;;;3613835;39;20230;-83
2021/07/14 04:38:12;;;;;;;54.17;45.65;;;;;;;;;;3605088;39;20233;-82
2021/07/14 04:40:39;;;;;;;54.42;45.25;;;;;;;;;;3613621;39;20249;-84
2021/07/14 04:43:06;;;;;;;52.90;43.97;;;;;;;;;;3613587;39;20245;-83
2021/07/14 04:45:35;;;;;;;49.90;44.53;;;;;;;;;;3612349;39;20245;-82
2021/07/14 04:48:07;;;;;;;56.20;49.83;;;;;;;;;;3604725;39;20691;-81
2021/07/14 04:50:34;;;;;;;53.67;44.13;;;;;;;;;;3613602;39;20249;-84
2021/07/14 04:53:01;;;;;;;53.55;47.72;;;;;;;;;;3613424;39;20249;-86
2021/07/14 04:55:29;;;;;;;51.58;45.92;;;;;;;;;;3613709;39;20233;-82
2021/07/14 04:57:56;;;;;;;55.20;48.30;;;;;;;;;;3613524;39;20242;-83
2021/07/14 05:00:23;;;;;;;51.95;44.58;;;;;;;;;;3612882;39;20221;-83
2021/07/14 05:02:52;;;;;;;58.35;49.50;;;;;;;;;;3613531;39;20233;-84
2021/07/14 05:05:19;;;;;;;54.45;47.45;;;;;;;;;;3613750;39;20801;-82
2021/07/14 05:07:47;;;;;;;54.17;48.25;;;;;;;;;;3613710;39;20210;-81
2021/07/14 05:10:15;;;;;;;58.80;50.05;;;;;;;;;;3613669;39;20217;-83
2021/07/14 05:12:42;;;;;;;57.72;51.25;;;;;;;;;;3613641;39;20230;-84
2021/07/14 05:15:10;;;;;;;61.50;52.30;;;;;;;;;;3613421;39;20233;-84
2021/07/14 05:17:38;;;;;;;59.75;52.08;;;;;;;;;;3613027;39;20303;-82
2021/07/14 05:20:10;;;;;;;54.33;45.03;;;;;;;;;;3613345;39;20894;-82
2021/07/14 05:22:37;;;;;;;54.25;47.65;;;;;;;;;;3613244;39;20249;-84
2021/07/14 05:25:05;;;;;;;57.35;49.90;;;;;;;;;;3613041;39;20290;-81
2021/07/14 05:27:32;;;;;;;54.97;47.17;;;;;;;;;;3612815;39;20776;-83
2021/07/14 05:30:00;;;;;;;57.17;46.40;;;;;;;;;;3613388;39;20895;-82
2021/07/14 05:32:27;;;;;;;55.03;48.10;;;;;;;;;;3613318;39;20256;-84
2021/07/14 05:34:54;;;;;;;57.92;48.78;;;;;;;;;;3611433;39;20234;-81
2021/07/14 05:40:07;;;;;;;64.05;50.15;;;;;;;;;;3613329;39;20241;-83
2021/07/14 05:42:34;;;;;;;54.08;47.05;;;;;;;;;;3601073;39;20233;-85
2021/07/14 05:45:01;;;;;;;50.05;45.03;;;;;;;;;;3604756;39;20245;-83
2021/07/14 05:53:03;;;;;;;63.83;52.70;;;;;;;;;;3632828;22;21223;-83
2021/07/14 05:55:31;;;;;;;62.95;52.63;;;;;;;;;;3645938;22;20256;-37
2021/07/14 05:57:59;;;;;;;61.50;53.92;;;;;;;;;;3599042;39;20240;-37
2021/07/14 06:00:27;;;;;;;58.65;52.45;;;;;;;;;;3599467;40;20519;-37
2021/07/14 06:02:54;;;;;;;59.55;53.08;;;;;;;;;;3599576;40;20590;-38
2021/07/14 06:05:21;;;;;;;62.28;55.45;;;;;;;;;;3599045;39;20241;-39
2021/07/14 06:07:49;;;;;;;65.60;55.08;;;;;;;;;;3598870;40;20494;-39
2021/07/14 06:10:16;;;;;;;60.72;50.38;;;;;;;;;;3598742;40;20225;-42
2021/07/14 06:12:45;;;;;;;62.50;53.90;;;;;;;;;;3596951;40;20693;-42
2021/07/14 06:15:12;;;;;;;60.50;52.17;;;;;;;;;;3597983;39;20432;-41
2021/07/14 06:17:40;;;;;;;57.13;48.30;;;;;;;;;;3597378;40;20226;-41
2021/07/14 06:20:08;;;;;;;63.58;52.42;;;;;;;;;;3597270;40;20506;-41
2021/07/14 06:22:36;;;;;;;60.17;49.33;;;;;;;;;;3597172;40;20287;-40
2021/07/14 06:25:03;;;;;;;60.35;52.05;;;;;;;;;;3588667;40;20242;-42
2021/07/14 06:27:30;;;;;;;58.63;52.05;;;;;;;;;;3588247;40;20234;-41
2021/07/14 06:30:00;;;;;;;54.63;48.15;;;;;;;;;;3588598;40;20230;-40
2021/07/14 06:32:28;;;;;;;58.17;49.40;;;;;;;;;;3588663;40;20242;-40
2021/07/14 06:34:55;;;;;;;55.78;49.92;;;;;;;;;;3588085;40;20277;-41
2021/07/14 06:37:23;;;;;;;60.03;49.47;;;;;;;;;;3597058;40;20237;-40
2021/07/14 06:39:50;;;;;;;52.85;47.10;;;;;;;;;;3598332;39;20260;-40
2021/07/14 06:42:17;;;;;;;57.92;49.50;;;;;;;;;;3598639;40;20618;-42
2021/07/14 06:44:45;;;;;;;65.55;51.92;;;;;;;;;;3598223;39;20237;-40
2021/07/14 06:47:13;;;;;;;59.90;51.85;;;;;;;;;;3598878;40;20226;-40
2021/07/14 06:49:41;;;;;;;59.92;50.10;;;;;;;;;;3598128;40;20631;-40
2021/07/14 06:52:08;;;;;;;57.08;50.00;;;;;;;;;;3598170;40;20230;-40
2021/07/14 06:54:38;;;;;;;60.30;52.65;;;;;;;;;;3598164;40;20282;-41
2021/07/14 06:57:06;;;;;;;57.78;49.55;;;;;;;;;;3597997;40;20245;-41
2021/07/14 06:59:33;;;;;;;54.75;48.78;;;;;;;;;;3598236;40;20245;-40
2021/07/14 07:02:04;;;;;;;60.63;51.10;;;;;;;;;;3598003;40;20237;-41
2021/07/14 07:04:33;;;;;;;59.60;49.40;;;;;;;;;;3598261;40;20253;-40
2021/07/14 07:07:01;;;;;;;53.63;48.05;;;;;;;;;;3598123;40;20234;-40
2021/07/14 07:09:28;;;;;;;51.67;44.75;;;;;;;;;;3598477;40;20238;-42
2021/07/14 07:11:55;;;;;;;55.97;45.90;;;;;;;;;;3598664;40;20249;-40
2021/07/14 07:14:23;;;;;;;51.75;46.15;;;;;;;;;;3597965;40;20238;-41
2021/07/14 07:16:50;;;;;;;50.53;45.38;;;;;;;;;;3598192;40;20242;-41
2021/07/14 07:19:17;;;;;;;61.05;50.95;;;;;;;;;;3598015;40;20238;-40
2021/07/14 07:21:47;;;;;;;56.67;49.38;;;;;;;;;;3598424;40;20593;-42
2021/07/14 07:24:14;;;;;;;54.15;48.30;;;;;;;;;;3598148;39;20314;-40
2021/07/14 07:26:44;;;;;;;54.88;46.25;;;;;;;;;;3598201;40;20260;-40
2021/07/14 07:29:11;;;;;;;48.90;43.67;;;;;;;;;;3598243;40;20314;-43
2021/07/14 07:31:39;;;;;;;48.92;44.03;;;;;;;;;;3598425;40;20233;-42
2021/07/14 07:34:06;;;;;;;49.28;44.20;;;;;;;;;;3598320;39;20245;-41
2021/07/14 07:36:33;;;;;;;49.45;44.17;;;;;;;;;;3598296;40;20237;-41
2021/07/14 07:39:02;;;;;;;62.28;45.50;;;;;;;;;;3598178;40;20238;-40
2021/07/14 07:41:29;;;;;;;50.83;44.08;;;;;;;;;;3597566;40;20278;-43
2021/07/14 07:43:56;;;;;;;47.40;42.50;;;;;;;;;;3597591;39;20237;-40
2021/07/14 07:46:24;;;;;;;46.80;41.95;;;;;;;;;;3598061;40;20248;-42
2021/07/14 07:48:51;;;;;;;47.22;42.30;;;;;;;;;;3596418;40;20244;-41
2021/07/14 07:51:19;;;;;;;40.35;36.22;;;;;;;;;;3597547;40;20230;-40
2021/07/14 07:53:46;;;;;;;42.67;38.47;;;;;;;;;;3598326;39;20313;-41
2021/07/14 07:56:15;;;;;;;45.10;40.40;;;;;;;;;;3597265;40;20457;-41
2021/07/14 07:58:43;;;;;;;44.70;39.05;;;;;;;;;;3597857;40;20245;-42
2021/07/14 08:01:11;;;;;;;42.75;38.22;;;;;;;;;;3597888;40;20249;-40
2021/07/14 08:03:38;;;;;;;41.00;36.95;;;;;;;;;;3597386;40;20247;-41
2021/07/14 08:06:05;;;;;;;42.55;38.22;;;;;;;;;;3598104;40;20225;-45
2021/07/14 08:08:33;;;;;;;45.13;40.33;;;;;;;;;;3596338;40;20229;-42
2021/07/14 08:11:00;;;;;;;42.50;38.20;;;;;;;;;;3597478;40;20658;-40
2021/07/14 08:13:29;;;;;;;42.22;37.97;;;;;;;;;;3597539;40;20620;-40
2021/07/14 08:15:56;;;;;;;45.28;40.63;;;;;;;;;;3601262;40;20264;-41
2021/07/14 08:18:24;;;;;;;40.10;36.30;;;;;;;;;;3603889;40;20230;-43
2021/07/14 08:20:52;;;;;;;41.22;35.85;;;;;;;;;;3597680;40;20498;-40
2021/07/14 08:23:20;;;;;;;41.50;37.55;;;;;;;;;;3597187;39;20605;-41
2021/07/14 08:25:48;;;;;;;38.90;35.08;;;;;;;;;;3598154;40;20591;-39
2021/07/14 08:28:15;;;;;;;40.30;36.53;;;;;;;;;;3598126;40;20248;-41
2021/07/14 08:30:44;;;;;;;36.40;32.88;;;;;;;;;;3598385;40;20233;-40
2021/07/14 08:33:12;;;;;;;37.88;34.45;;;;;;;;;;3597960;39;20229;-40
2021/07/14 08:35:40;;;;;;;37.85;34.15;;;;;;;;;;3597845;40;20230;-40
2021/07/14 08:38:08;;;;;;;38.33;34.50;;;;;;;;;;3588508;40;20234;-40
2021/07/14 08:40:35;;;;;;;39.50;35.90;;;;;;;;;;3597945;40;20237;-41
2021/07/14 08:43:03;;;;;;;37.80;34.10;;;;;;;;;;3597259;40;20591;-42
2021/07/14 08:45:30;;;;;;;38.17;34.55;;;;;;;;;;3598457;40;20238;-40
2021/07/14 08:48:05;;;;;;;37.28;33.65;;;;;;;;;;3588023;40;20246;-40
2021/07/14 08:50:33;;;;;;;39.35;35.50;;;;;;;;;;3597171;40;20230;-40
2021/07/14 08:53:00;;;;;;;35.97;32.70;;;;;;;;;;3597248;40;20322;-41
2021/07/14 08:55:27;;;;;;;34.75;31.13;;;;;;;;;;3597340;39;20241;-42
2021/07/14 08:57:55;;;;;;;34.63;31.50;;;;;;;;;;3597566;40;20709;-42
2021/07/14 09:00:26;;;;;;;36.28;32.78;;;;;;;;;;3597497;40;20229;-41
2021/07/14 09:02:53;;;;;;;35.88;32.33;;;;;;;;;;3598656;39;20304;-41
2021/07/14 09:05:22;;;;;;;37.05;33.55;;;;;;;;;;3599131;39;20244;-41
2021/07/14 09:07:49;;;;;;;38.88;35.30;;;;;;;;;;3598930;40;20237;-42
2021/07/14 09:10:17;;;;;;;35.17;31.85;;;;;;;;;;3600145;40;20245;-43
2021/07/14 09:12:46;;;;;;;37.42;33.88;;;;;;;;;;3603701;40;20250;-42
2021/07/14 09:15:14;;;;;;;33.30;30.27;;;;;;;;;;3602121;39;20629;-42
2021/07/14 09:17:45;;;;;;;35.17;31.67;;;;;;;;;;3601418;40;20245;-42
2021/07/14 09:20:13;;;;;;;31.90;28.80;;;;;;;;;;3600862;40;20238;-40
2021/07/14 09:22:42;;;;;;;30.30;27.52;;;;;;;;;;3601313;40;20237;-40
2021/07/14 09:25:11;;;;;;;37.10;33.30;;;;;;;;;;3601114;39;20587;-40
2021/07/14 09:27:38;;;;;;;31.63;28.92;;;;;;;;;;3601080;40;20238;-40
2021/07/14 09:30:12;;;;;;;30.55;27.58;;;;;;;;;;3600709;40;20246;-42
2021/07/14 09:32:49;;;;;;;30.40;27.70;;;;;;;;;;3601765;40;20249;-40
2021/07/14 09:35:31;;;;;;;27.10;24.67;;;;;;;;;;3601413;40;20249;-43
2021/07/14 09:38:01;;;;;;;28.58;26.00;;;;;;;;;;3600530;40;20237;-40
2021/07/14 09:40:29;;;;;;;29.40;26.75;;;;;;;;;;3601800;40;20242;-44
2021/07/14 09:42:58;;;;;;;32.05;28.98;;;;;;;;;;3602129;40;20523;-42
2021/07/14 09:45:46;;;;;;;12.88;11.77;;;;;;;;;;3601654;40;20499;-40
2021/07/14 09:48:14;;;;;;;7.22;6.57;;;;;;;;;;3601487;40;20593;-41
2021/07/14 09:50:43;;;;;;;7.05;5.15;;;;;;;;;;3601311;40;20226;-41
2021/07/14 09:53:12;;;;;;;29.20;26.30;;;;;;;;;;3600643;39;20249;-40
2021/07/14 09:55:41;;;;;;;7.22;6.63;;;;;;;;;;3600807;40;20266;-41
2021/07/14 09:58:16;;;;;;;6.47;5.25;;;;;;;;;;3600581;40;20518;-40
2021/07/14 10:00:44;;;;;;;7.88;7.18;;;;;;;;;;3599873;40;20249;-40
2021/07/14 10:03:17;;;;;;;7.82;5.63;;;;;;;;;;3600119;40;20245;-42
2021/07/14 10:05:46;;;;;;;4.97;4.47;;;;;;;;;;3597266;40;20239;-42
2021/07/14 10:08:19;;;;;;;5.68;5.10;;;;;;;;;;3591462;40;20593;-40
2021/07/14 10:10:46;;;;;;;9.10;6.35;;;;;;;;;;3600738;40;20242;-40
2021/07/14 10:13:14;;;;;;;6.15;5.00;;;;;;;;;;3599732;39;20613;-40
2021/07/14 10:15:42;;;;;;;6.15;5.40;;;;;;;;;;3599800;40;20245;-43
2021/07/14 10:18:11;;;;;;;6.75;5.82;;;;;;;;;;3600112;40;20253;-40
2021/07/14 10:20:40;;;;;;;6.05;5.43;;;;;;;;;;3600282;40;20599;-42
2021/07/14 10:23:09;;;;;;;6.03;5.53;;;;;;;;;;3599873;40;20306;-40
2021/07/14 10:25:38;;;;;;;7.40;6.00;;;;;;;;;;3599921;40;20265;-40
2021/07/14 10:28:07;;;;;;;7.95;6.22;;;;;;;;;;3599887;40;20593;-40
2021/07/14 10:30:34;;;;;;;9.75;6.28;;;;;;;;;;3600266;40;20605;-39
2021/07/14 10:33:02;;;;;;;7.53;6.82;;;;;;;;;;3588942;40;20239;-40
2021/07/14 10:35:34;;;;;;;6.45;5.95;;;;;;;;;;3589673;40;20242;-40
2021/07/14 10:38:03;;;;;;;6.13;5.00;;;;;;;;;;3590192;40;20246;-40
2021/07/14 10:40:30;;;;;;;6.75;6.10;;;;;;;;;;3589775;40;20234;-41
2021/07/14 10:42:59;;;;;;;8.38;5.95;;;;;;;;;;3594319;40;20633;-42
2021/07/14 10:45:26;;;;;;;5.68;5.13;;;;;;;;;;3599882;39;20249;-42
2021/07/14 10:47:55;;;;;;;6.47;5.90;;;;;;;;;;3600231;40;20593;-40
2021/07/14 10:50:25;;;;;;;6.05;5.50;;;;;;;;;;3599667;40;20238;-42
2021/07/14 10:52:52;;;;;;;6.13;5.53;;;;;;;;;;3599457;40;20234;-43
2021/07/14 10:55:21;;;;;;;5.53;4.75;;;;;;;;;;3596646;39;20254;-40
2021/07/14 10:57:49;;;;;;;6.43;5.82;;;;;;;;;;3599779;40;20237;-40
2021/07/14 11:00:18;;;;;;;6.38;5.35;;;;;;;;;;3599680;40;20237;-40
2021/07/14 11:02:46;;;;;;;5.47;4.10;;;;;;;;;;3600047;40;20244;-40
2021/07/14 11:05:14;;;;;;;5.82;5.05;;;;;;;;;;3599357;40;20246;-41
2021/07/14 11:07:46;;;;;;;6.10;5.28;;;;;;;;;;3600668;40;20241;-42
2021/07/14 11:10:30;;;;;;;8.57;7.68;;;;;;;;;;3599812;40;20588;-40
2021/07/14 11:12:58;;;;;;;6.20;5.10;;;;;;;;;;3581495;40;20235;-40
2021/07/14 11:15:31;;;;;;;6.70;6.10;;;;;;;;;;3590593;40;20598;-41
2021/07/14 11:17:59;;;;;;;8.52;7.82;;;;;;;;;;3595357;40;20242;-43
2021/07/14 11:20:37;;;;;;;8.95;7.40;;;;;;;;;;3591174;40;20239;-40
2021/07/14 11:23:16;;;;;;;8.90;7.97;;;;;;;;;;3588996;40;20238;-42
2021/07/14 11:25:47;;;;;;;9.40;8.43;;;;;;;;;;3597311;39;20233;-40
2021/07/14 11:28:15;;;;;;;11.43;9.68;;;;;;;;;;3597143;40;20237;-42
2021/07/14 11:30:45;;;;;;;12.32;11.20;;;;;;;;;;3598423;40;20226;-40
2021/07/14 11:33:20;;;;;;;18.88;17.13;;;;;;;;;;3598713;40;20322;-40
2021/07/14 11:35:51;;;;;;;19.23;17.38;;;;;;;;;;3598543;40;20237;-40
2021/07/14 11:38:20;;;;;;;20.73;18.63;;;;;;;;;;3598577;40;20264;-40
2021/07/14 11:40:48;;;;;;;20.20;18.17;;;;;;;;;;3595404;40;20234;-42
2021/07/14 11:43:20;;;;;;;17.77;16.05;;;;;;;;;;3597923;39;20222;-40
2021/07/14 11:45:49;;;;;;;15.98;14.55;;;;;;;;;;3588631;40;20568;-40
2021/07/14 11:48:18;;;;;;;16.48;15.05;;;;;;;;;;3592288;40;20250;-40
2021/07/14 11:50:54;;;;;;;13.55;12.40;;;;;;;;;;3597045;40;20272;-40
2021/07/14 11:53:39;;;;;;;14.50;12.95;;;;;;;;;;3598728;40;20318;-40
2021/07/14 11:56:21;;;;;;;14.40;13.10;;;;;;;;;;3593045;40;20233;-41
2021/07/14 11:59:12;;;;;;;12.20;11.00;;;;;;;;;;3595944;40;20315;-42
2021/07/14 12:02:01;;;;;;;13.57;12.35;;;;;;;;;;3580415;40;20623;-41
2021/07/14 12:04:29;;;;;;;13.45;12.15;;;;;;;;;;3594752;39;20605;-40
2021/07/14 12:07:03;;;;;;;13.38;12.18;;;;;;;;;;3592177;40;20272;-40
2021/07/14 12:09:32;;;;;;;13.15;10.80;;;;;;;;;;3597624;40;20528;-41
2021/07/14 12:12:00;;;;;;;11.00;10.00;;;;;;;;;;3598231;40;20240;-40
2021/07/14 12:14:29;;;;;;;11.52;10.40;;;;;;;;;;3597726;39;20241;-41
2021/07/14 12:16:57;;;;;;;11.80;10.35;;;;;;;;;;3597708;40;20233;-42
2021/07/14 12:19:26;;;;;;;11.02;9.93;;;;;;;;;;3598191;40;20569;-41
2021/07/14 12:21:54;;;;;;;9.70;8.90;;;;;;;;;;3597682;40;20230;-40
2021/07/14 12:24:29;;;;;;;10.68;9.68;;;;;;;;;;3588320;40;20524;-41
2021/07/14 12:27:00;;;;;;;10.07;9.15;;;;;;;;;;3598188;40;20533;-41
2021/07/14 12:29:28;;;;;;;9.90;8.77;;;;;;;;;;3597939;40;20241;-41
2021/07/14 12:31:55;;;;;;;7.55;6.85;;;;;;;;;;3598266;40;20237;-41
2021/07/14 12:34:23;;;;;;;7.72;6.93;;;;;;;;;;3597549;39;20249;-41
2021/07/14 12:36:52;;;;;;;7.30;6.65;;;;;;;;;;3598367;39;20234;-41
2021/07/14 12:39:23;;;;;;;7.25;6.55;;;;;;;;;;3596750;40;20587;-41
2021/07/14 12:41:52;;;;;;;7.47;5.70;;;;;;;;;;3594613;40;20628;-42
2021/07/14 12:44:19;;;;;;;4.75;4.35;;;;;;;;;;3598720;39;20245;-45
2021/07/14 12:46:46;;;;;;;5.30;4.80;;;;;;;;;;3599226;40;20246;-40
2021/07/14 12:49:15;;;;;;;5.25;4.43;;;;;;;;;;3599014;40;20530;-41
2021/07/14 12:51:42;;;;;;;5.32;4.10;;;;;;;;;;3595653;40;20600;-41
2021/07/14 12:54:21;;;;;;;4.93;4.45;;;;;;;;;;3586146;40;20241;-41
2021/07/14 12:56:48;;;;;;;4.00;3.70;;;;;;;;;;3592505;40;20635;-41
2021/07/14 12:59:15;;;;;;;3.85;3.45;;;;;;;;;;3597721;40;20233;-41
2021/07/14 13:01:45;;;;;;;3.78;3.00;;;;;;;;;;3597590;40;20238;-42
2021/07/14 13:04:15;;;;;;;3.03;2.83;;;;;;;;;;3598840;40;20451;-40
2021/07/14 13:06:43;;;;;;;6.63;2.85;;;;;;;;;;3598981;40;20585;-40
2021/07/14 13:09:12;;;;;;;2.70;2.17;;;;;;;;;;3599348;40;20246;-40
2021/07/14 13:11:40;;;;;;;1.80;1.70;;;;;;;;;;3599433;40;20473;-41
2021/07/14 13:14:07;;;;;;;1.73;1.63;;;;;;;;;;3598080;39;20246;-40
2021/07/14 13:16:41;;;;;;;4.45;1.85;;;;;;;;;;3596941;40;20230;-42
2021/07/14 13:19:16;;;;;;;1.88;1.77;;;;;;;;;;3599140;40;20253;-40
2021/07/14 13:21:45;;;;;;;2.97;1.42;;;;;;;;;;3598923;40;20239;-43
2021/07/14 13:24:14;;;;;;;1.30;1.20;;;;;;;;;;3598423;40;20285;-41
2021/07/14 13:26:41;;;;;;;1.58;1.40;;;;;;;;;;3589278;40;20242;-40
2021/07/14 13:29:09;;;;;;;2.22;1.45;;;;;;;;;;3598451;40;20230;-40
2021/07/14 13:31:38;;;;;;;1.02;1.02;;;;;;;;;;3593486;40;20234;-41
2021/07/14 13:34:08;;;;;;;1.00;1.00;;;;;;;;;;3590861;40;20578;-40
2021/07/14 13:36:36;;;;;;;2.50;0.90;;;;;;;;;;3599251;40;20257;-40
2021/07/14 13:39:15;;;;;;;2.95;1.48;;;;;;;;;;3599213;40;20245;-40
2021/07/14 13:41:44;;;;;;;3.35;0.80;;;;;;;;;;3598959;40;20521;-40
2021/07/14 13:44:12;;;;;;;2.40;0.70;;;;;;;;;;3598392;39;20241;-41
2021/07/14 13:46:46;;;;;;;0.70;0.70;;;;;;;;;;3598877;40;20248;-41
2021/07/14 13:49:18;;;;;;;0.88;0.50;;;;;;;;;;3596986;39;20652;-42
2021/07/14 13:51:47;;;;;;;0.30;0.30;;;;;;;;;;3598567;40;20229;-41
2021/07/14 13:54:18;;;;;;;0.40;0.40;;;;;;;;;;3599246;40;20248;-41
2021/07/14 13:56:48;;;;;;;0.63;0.40;;;;;;;;;;3599007;40;20275;-41
2021/07/14 13:59:23;;;;;;;1.38;0.40;;;;;;;;;;3598727;40;20256;-40
2021/07/14 14:02:01;;;;;;;0.95;0.50;;;;;;;;;;3598623;40;20241;-40
2021/07/14 14:04:29;;;;;;;0.40;0.40;;;;;;;;;;3643816;22;20244;-82
2021/07/14 14:07:02;;;;;;;0.43;0.43;;;;;;;;;;3605676;39;20234;-82
2021/07/14 14:09:29;;;;;;;0.85;0.40;;;;;;;;;;3605887;39;20233;-81
2021/07/14 14:12:00;;;;;;;0.43;0.40;;;;;;;;;;3601080;39;20232;-81
2021/07/14 14:14:27;;;;;;;0.47;0.40;;;;;;;;;;3601489;40;20300;-82
2021/07/14 14:16:54;;;;;;;1.38;0.40;;;;;;;;;;3597295;40;20227;-84
2021/07/14 14:19:22;;;;;;;3.22;0.68;;;;;;;;;;3602937;40;20703;-80
2021/07/14 14:21:53;;;;;;;1.77;0.57;;;;;;;;;;3603028;40;20242;-80
2021/07/14 14:24:30;;;;;;;1.48;0.60;;;;;;;;;;3602773;40;20253;-81
2021/07/14 14:27:04;;;;;;;0.60;0.30;;;;;;;;;;3603002;39;20234;-80
2021/07/14 14:29:32;;;;;;;0.90;0.47;;;;;;;;;;3602867;39;20241;-81
2021/07/14 14:31:59;;;;;;;2.00;0.40;;;;;;;;;;3603003;40;20237;-82
2021/07/14 14:34:27;;;;;;;2.50;0.30;;;;;;;;;;3600543;40;20222;-82
2021/07/14 14:36:55;;;;;;;0.20;0.20;;;;;;;;;;3594657;39;20281;-83
2021/07/14 14:39:23;;;;;;;3.92;1.65;;;;;;;;;;3593981;40;20238;-81
2021/07/14 14:41:50;;;;;;;0.73;0.40;;;;;;;;;;3600913;39;20247;-82
2021/07/14 14:44:19;;;;;;;0.30;0.30;;;;;;;;;;3602447;39;20763;-84
2021/07/14 14:46:46;;;;;;;0.47;0.47;;;;;;;;;;3604797;39;20214;-82
2021/07/14 14:49:14;;;;;;;0.30;0.30;;;;;;;;;;3597460;40;20235;-81
2021/07/14 14:51:41;;;;;;;2.45;0.60;;;;;;;;;;3596113;40;20273;-84
2021/07/14 14:54:08;;;;;;;0.77;0.47;;;;;;;;;;3597769;40;20207;-81
2021/07/14 14:56:36;;;;;;;1.10;0.57;;;;;;;;;;3592773;40;20219;-83
2021/07/14 14:59:03;;;;;;;0.75;0.20;;;;;;;;;;3602023;39;20241;-80
2021/07/14 15:01:32;;;;;;;6.25;5.68;;;;;;;;;;3612829;39;20234;-81
2021/07/14 15:03:59;;;;;;;10.38;9.35;;;;;;;;;;3598532;39;20820;-81
2021/07/14 15:06:27;;;;;;;3.17;1.92;;;;;;;;;;3598128;40;20238;-82
2021/07/14 15:08:54;;;;;;;0.88;0.45;;;;;;;;;;3596966;40;20293;-87
2021/07/14 15:11:22;;;;;;;9.23;7.15;;;;;;;;;;3602537;40;20250;-80
2021/07/14 15:13:51;;;;;;;1.35;0.73;;;;;;;;;;3601608;40;20257;-82
2021/07/14 15:16:18;;;;;;;0.82;0.55;;;;;;;;;;3600762;39;20288;-81
2021/07/14 15:18:52;;;;;;;1.40;0.40;;;;;;;;;;3602586;40;20262;-81
2021/07/14 15:21:20;;;;;;;0.43;0.43;;;;;;;;;;3602717;39;20237;-84
2021/07/14 15:23:51;;;;;;;0.43;0.43;;;;;;;;;;3600684;40;20242;-82
2021/07/14 15:29:03;;;;;;;0.40;0.40;;;;;;;;;;3602946;39;20684;-82
2021/07/14 15:31:31;;;;;;;0.32;0.32;;;;;;;;;;3595054;39;20241;-81
2021/07/14 15:34:01;;;;;;;2.60;0.40;;;;;;;;;;3596593;40;20239;-82
2021/07/14 15:36:28;;;;;;;0.30;0.30;;;;;;;;;;3602301;40;20788;-82